sensor_id;sensor_type;location;lat;lon;timestamp;P1;durP1;ratioP1;P2;durP2;ratioP2
6985;SDS011;3533;51.246;6.850;2022-10-04T00:04:20;4.20;;;3.90;;
6985;SDS011;3533;51.246;6.850;2022-10-04T00:06:50;4.17;;;3.90;;
6985;SDS011;3533;51.246;6.850;2022-10-04T00:09:39;3.90;;;3.70;;
6985;SDS011;3533;51.246;6.850;2022-10-04T00:12:17;4.10;;;3.87;;
6985;SDS011;3533;51.246;6.850;2022-10-04T00:15:05;3.90;;;3.70;;
6985;SDS011;3533;51.246;6.850;2022-10-04T00:17:43;3.87;;;3.67;;
6985;SDS011;3533;51.246;6.850;2022-10-04T00:23:24;4.10;;;3.80;;
6985;SDS011;3533;51.246;6.850;2022-10-04T00:25:53;4.17;;;3.77;;
6985;SDS011;3533;51.246;6.850;2022-10-04T00:31:05;3.53;;;3.30;;
6985;SDS011;3533;51.246;6.850;2022-10-04T00:33:44;4.23;;;3.93;;
6985;SDS011;3533;51.246;6.850;2022-10-04T00:44:08;3.87;;;3.67;;
6985;SDS011;3533;51.246;6.850;2022-10-04T00:46:41;3.30;;;3.10;;
6985;SDS011;3533;51.246;6.850;2022-10-04T00:49:08;4.30;;;4.10;;
6985;SDS011;3533;51.246;6.850;2022-10-04T00:51:39;3.13;;;2.93;;
6985;SDS011;3533;51.246;6.850;2022-10-04T00:54:27;3.67;;;3.47;;
6985;SDS011;3533;51.246;6.850;2022-10-04T00:57:11;3.40;;;3.20;;
6985;SDS011;3533;51.246;6.850;2022-10-04T00:59:42;3.87;;;3.57;;
6985;SDS011;3533;51.246;6.850;2022-10-04T01:02:14;3.20;;;3.00;;
6985;SDS011;3533;51.246;6.850;2022-10-04T01:04:53;3.50;;;3.30;;
6985;SDS011;3533;51.246;6.850;2022-10-04T01:07:28;4.27;;;4.07;;
6985;SDS011;3533;51.246;6.850;2022-10-04T01:10:04;3.93;;;3.67;;
6985;SDS011;3533;51.246;6.850;2022-10-04T01:12:40;4.00;;;3.70;;
6985;SDS011;3533;51.246;6.850;2022-10-04T01:15:25;3.63;;;3.40;;
6985;SDS011;3533;51.246;6.850;2022-10-04T01:18:13;3.67;;;3.47;;
6985;SDS011;3533;51.246;6.850;2022-10-04T01:20:53;3.40;;;3.20;;
6985;SDS011;3533;51.246;6.850;2022-10-04T01:23:29;3.60;;;3.40;;
6985;SDS011;3533;51.246;6.850;2022-10-04T01:25:58;3.60;;;3.40;;
6985;SDS011;3533;51.246;6.850;2022-10-04T01:28:24;3.27;;;3.07;;
6985;SDS011;3533;51.246;6.850;2022-10-04T01:30:50;3.30;;;3.10;;
6985;SDS011;3533;51.246;6.850;2022-10-04T01:33:17;3.50;;;3.30;;
6985;SDS011;3533;51.246;6.850;2022-10-04T01:35:43;4.10;;;3.80;;
6985;SDS011;3533;51.246;6.850;2022-10-04T01:38:08;3.33;;;3.13;;
6985;SDS011;3533;51.246;6.850;2022-10-04T01:40:40;3.07;;;2.80;;
6985;SDS011;3533;51.246;6.850;2022-10-04T01:43:22;3.30;;;3.10;;
6985;SDS011;3533;51.246;6.850;2022-10-04T01:45:55;3.20;;;3.00;;
6985;SDS011;3533;51.246;6.850;2022-10-04T01:48:27;3.27;;;3.07;;
6985;SDS011;3533;51.246;6.850;2022-10-04T01:50:57;2.97;;;2.77;;
6985;SDS011;3533;51.246;6.850;2022-10-04T01:53:29;3.57;;;3.37;;
6985;SDS011;3533;51.246;6.850;2022-10-04T01:56:07;3.40;;;3.20;;
6985;SDS011;3533;51.246;6.850;2022-10-04T01:58:44;3.50;;;3.30;;
6985;SDS011;3533;51.246;6.850;2022-10-04T02:01:17;3.97;;;3.73;;
6985;SDS011;3533;51.246;6.850;2022-10-04T02:03:54;3.40;;;3.20;;
6985;SDS011;3533;51.246;6.850;2022-10-04T02:06:24;4.00;;;3.13;;
6985;SDS011;3533;51.246;6.850;2022-10-04T02:08:50;3.20;;;2.80;;
6985;SDS011;3533;51.246;6.850;2022-10-04T02:11:21;3.80;;;3.60;;
6985;SDS011;3533;51.246;6.850;2022-10-04T02:13:51;3.10;;;2.90;;
6985;SDS011;3533;51.246;6.850;2022-10-04T02:16:18;3.50;;;3.30;;
6985;SDS011;3533;51.246;6.850;2022-10-04T02:18:46;4.10;;;3.40;;
6985;SDS011;3533;51.246;6.850;2022-10-04T02:21:14;3.30;;;3.10;;
6985;SDS011;3533;51.246;6.850;2022-10-04T02:23:43;2.87;;;2.77;;
6985;SDS011;3533;51.246;6.850;2022-10-04T02:26:10;3.60;;;3.30;;
6985;SDS011;3533;51.246;6.850;2022-10-04T02:28:36;3.30;;;3.10;;
6985;SDS011;3533;51.246;6.850;2022-10-04T02:31:02;3.23;;;3.00;;
6985;SDS011;3533;51.246;6.850;2022-10-04T02:33:48;3.67;;;3.37;;
6985;SDS011;3533;51.246;6.850;2022-10-04T02:36:16;3.43;;;3.23;;
6985;SDS011;3533;51.246;6.850;2022-10-04T02:38:45;2.80;;;2.60;;
6985;SDS011;3533;51.246;6.850;2022-10-04T02:41:27;3.10;;;2.90;;
6985;SDS011;3533;51.246;6.850;2022-10-04T02:44:43;3.20;;;3.00;;
6985;SDS011;3533;51.246;6.850;2022-10-04T02:46:56;3.00;;;2.80;;
6985;SDS011;3533;51.246;6.850;2022-10-04T02:54:39;3.13;;;2.93;;
6985;SDS011;3533;51.246;6.850;2022-10-04T02:57:12;2.90;;;2.60;;
6985;SDS011;3533;51.246;6.850;2022-10-04T02:59:40;2.60;;;2.50;;
6985;SDS011;3533;51.246;6.850;2022-10-04T03:02:20;3.40;;;3.20;;
6985;SDS011;3533;51.246;6.850;2022-10-04T03:04:50;3.10;;;2.90;;
6985;SDS011;3533;51.246;6.850;2022-10-04T03:07:19;3.00;;;2.80;;
6985;SDS011;3533;51.246;6.850;2022-10-04T03:09:46;2.70;;;2.50;;
6985;SDS011;3533;51.246;6.850;2022-10-04T03:12:12;3.20;;;3.00;;
6985;SDS011;3533;51.246;6.850;2022-10-04T03:14:38;3.03;;;2.83;;
6985;SDS011;3533;51.246;6.850;2022-10-04T03:17:04;3.30;;;3.10;;
6985;SDS011;3533;51.246;6.850;2022-10-04T03:19:31;3.20;;;3.00;;
6985;SDS011;3533;51.246;6.850;2022-10-04T03:22:00;2.97;;;2.77;;
6985;SDS011;3533;51.246;6.850;2022-10-04T03:24:28;3.77;;;3.57;;
6985;SDS011;3533;51.246;6.850;2022-10-04T03:26:56;3.00;;;2.80;;
6985;SDS011;3533;51.246;6.850;2022-10-04T03:29:25;3.90;;;3.60;;
6985;SDS011;3533;51.246;6.850;2022-10-04T03:31:54;3.63;;;3.30;;
6985;SDS011;3533;51.246;6.850;2022-10-04T03:34:25;3.43;;;3.10;;
6985;SDS011;3533;51.246;6.850;2022-10-04T03:36:56;2.70;;;2.60;;
6985;SDS011;3533;51.246;6.850;2022-10-04T03:39:30;2.90;;;2.80;;
6985;SDS011;3533;51.246;6.850;2022-10-04T03:42:00;3.00;;;2.80;;
6985;SDS011;3533;51.246;6.850;2022-10-04T03:44:40;3.00;;;2.80;;
6985;SDS011;3533;51.246;6.850;2022-10-04T03:47:09;3.30;;;3.10;;
6985;SDS011;3533;51.246;6.850;2022-10-04T03:49:38;2.80;;;2.60;;
6985;SDS011;3533;51.246;6.850;2022-10-04T03:52:05;3.00;;;2.80;;
6985;SDS011;3533;51.246;6.850;2022-10-04T03:54:38;2.87;;;2.70;;
6985;SDS011;3533;51.246;6.850;2022-10-04T03:57:04;3.10;;;2.90;;
6985;SDS011;3533;51.246;6.850;2022-10-04T03:59:30;2.80;;;2.60;;
6985;SDS011;3533;51.246;6.850;2022-10-04T04:05:13;3.10;;;2.90;;
6985;SDS011;3533;51.246;6.850;2022-10-04T04:07:46;3.30;;;3.10;;
6985;SDS011;3533;51.246;6.850;2022-10-04T04:10:28;2.97;;;2.80;;
6985;SDS011;3533;51.246;6.850;2022-10-04T04:13:00;2.73;;;2.63;;
6985;SDS011;3533;51.246;6.850;2022-10-04T04:15:31;2.90;;;2.70;;
6985;SDS011;3533;51.246;6.850;2022-10-04T04:18:04;2.57;;;2.47;;
6985;SDS011;3533;51.246;6.850;2022-10-04T04:20:37;3.57;;;3.37;;
6985;SDS011;3533;51.246;6.850;2022-10-04T04:25:40;5.60;;;3.33;;
6985;SDS011;3533;51.246;6.850;2022-10-04T04:31:08;2.83;;;2.63;;
6985;SDS011;3533;51.246;6.850;2022-10-04T04:33:56;3.20;;;3.00;;
6985;SDS011;3533;51.246;6.850;2022-10-04T04:36:29;2.80;;;2.60;;
6985;SDS011;3533;51.246;6.850;2022-10-04T04:39:07;2.90;;;2.70;;
6985;SDS011;3533;51.246;6.850;2022-10-04T04:41:56;3.40;;;3.20;;
6985;SDS011;3533;51.246;6.850;2022-10-04T04:44:22;3.20;;;3.00;;
6985;SDS011;3533;51.246;6.850;2022-10-04T04:46:48;2.63;;;2.53;;
6985;SDS011;3533;51.246;6.850;2022-10-04T04:49:14;2.63;;;2.53;;
6985;SDS011;3533;51.246;6.850;2022-10-04T04:51:45;3.03;;;2.83;;
6985;SDS011;3533;51.246;6.850;2022-10-04T04:54:16;3.20;;;3.00;;
6985;SDS011;3533;51.246;6.850;2022-10-04T04:56:48;2.87;;;2.67;;
6985;SDS011;3533;51.246;6.850;2022-10-04T04:59:15;3.07;;;2.87;;
6985;SDS011;3533;51.246;6.850;2022-10-04T05:01:43;2.80;;;2.60;;
6985;SDS011;3533;51.246;6.850;2022-10-04T05:06:40;2.83;;;2.63;;
6985;SDS011;3533;51.246;6.850;2022-10-04T05:09:29;2.60;;;2.50;;
6985;SDS011;3533;51.246;6.850;2022-10-04T05:12:07;3.00;;;2.80;;
6985;SDS011;3533;51.246;6.850;2022-10-04T05:14:44;2.80;;;2.60;;
6985;SDS011;3533;51.246;6.850;2022-10-04T05:17:26;2.87;;;2.67;;
6985;SDS011;3533;51.246;6.850;2022-10-04T05:19:58;2.63;;;2.53;;
6985;SDS011;3533;51.246;6.850;2022-10-04T05:22:25;2.50;;;2.40;;
6985;SDS011;3533;51.246;6.850;2022-10-04T05:24:53;3.17;;;2.87;;
6985;SDS011;3533;51.246;6.850;2022-10-04T05:27:34;2.60;;;2.50;;
6985;SDS011;3533;51.246;6.850;2022-10-04T05:32:33;3.27;;;3.07;;
6985;SDS011;3533;51.246;6.850;2022-10-04T05:35:14;3.10;;;2.97;;
6985;SDS011;3533;51.246;6.850;2022-10-04T05:40:42;2.90;;;2.70;;
6985;SDS011;3533;51.246;6.850;2022-10-04T05:48:44;3.07;;;2.87;;
6985;SDS011;3533;51.246;6.850;2022-10-04T05:51:19;3.07;;;2.87;;
6985;SDS011;3533;51.246;6.850;2022-10-04T05:53:45;2.33;;;2.20;;
6985;SDS011;3533;51.246;6.850;2022-10-04T05:58:46;3.43;;;3.17;;
6985;SDS011;3533;51.246;6.850;2022-10-04T06:07:13;2.50;;;2.40;;
6985;SDS011;3533;51.246;6.850;2022-10-04T06:10:08;3.30;;;3.10;;
6985;SDS011;3533;51.246;6.850;2022-10-04T06:15:37;3.00;;;2.80;;
6985;SDS011;3533;51.246;6.850;2022-10-04T06:21:07;3.37;;;3.17;;
6985;SDS011;3533;51.246;6.850;2022-10-04T06:24:04;2.63;;;2.43;;
6985;SDS011;3533;51.246;6.850;2022-10-04T06:26:39;2.73;;;2.53;;
6985;SDS011;3533;51.246;6.850;2022-10-04T06:29:13;3.00;;;2.80;;
6985;SDS011;3533;51.246;6.850;2022-10-04T06:40:03;2.63;;;2.50;;
6985;SDS011;3533;51.246;6.850;2022-10-04T06:45:56;3.00;;;2.80;;
6985;SDS011;3533;51.246;6.850;2022-10-04T06:56:37;2.70;;;2.60;;
6985;SDS011;3533;51.246;6.850;2022-10-04T07:01:55;2.50;;;2.30;;
6985;SDS011;3533;51.246;6.850;2022-10-04T07:04:30;2.23;;;2.13;;
6985;SDS011;3533;51.246;6.850;2022-10-04T07:10:15;2.33;;;2.23;;
6985;SDS011;3533;51.246;6.850;2022-10-04T07:12:44;2.80;;;2.60;;
6985;SDS011;3533;51.246;6.850;2022-10-04T07:15:18;2.77;;;2.57;;
6985;SDS011;3533;51.246;6.850;2022-10-04T07:17:49;2.30;;;2.20;;
6985;SDS011;3533;51.246;6.850;2022-10-04T07:20:23;2.40;;;2.20;;
6985;SDS011;3533;51.246;6.850;2022-10-04T07:22:55;2.83;;;2.63;;
6985;SDS011;3533;51.246;6.850;2022-10-04T07:25:35;2.37;;;2.23;;
6985;SDS011;3533;51.246;6.850;2022-10-04T07:28:16;2.63;;;2.43;;
6985;SDS011;3533;51.246;6.850;2022-10-04T07:33:46;2.80;;;2.43;;
6985;SDS011;3533;51.246;6.850;2022-10-04T07:36:23;3.10;;;2.83;;
6985;SDS011;3533;51.246;6.850;2022-10-04T07:39:04;2.70;;;2.47;;
6985;SDS011;3533;51.246;6.850;2022-10-04T07:41:38;2.37;;;2.27;;
6985;SDS011;3533;51.246;6.850;2022-10-04T07:49:38;5.73;;;2.47;;
6985;SDS011;3533;51.246;6.850;2022-10-04T07:55:27;2.47;;;2.37;;
6985;SDS011;3533;51.246;6.850;2022-10-04T08:00:53;4.00;;;2.83;;
6985;SDS011;3533;51.246;6.850;2022-10-04T08:03:34;2.30;;;2.20;;
6985;SDS011;3533;51.246;6.850;2022-10-04T08:08:48;2.60;;;2.50;;
6985;SDS011;3533;51.246;6.850;2022-10-04T08:11:42;2.87;;;2.67;;
6985;SDS011;3533;51.246;6.850;2022-10-04T08:19:41;2.60;;;2.10;;
6985;SDS011;3533;51.246;6.850;2022-10-04T08:27:49;2.57;;;2.43;;
6985;SDS011;3533;51.246;6.850;2022-10-04T08:50:36;4.37;;;2.87;;
6985;SDS011;3533;51.246;6.850;2022-10-04T08:56:17;2.73;;;2.53;;
6985;SDS011;3533;51.246;6.850;2022-10-04T08:59:09;2.40;;;2.20;;
6985;SDS011;3533;51.246;6.850;2022-10-04T09:07:53;8.13;;;2.80;;
6985;SDS011;3533;51.246;6.850;2022-10-04T09:16:15;5.40;;;2.83;;
6985;SDS011;3533;51.246;6.850;2022-10-04T09:18:50;3.60;;;2.73;;
6985;SDS011;3533;51.246;6.850;2022-10-04T09:24:19;2.50;;;2.30;;
6985;SDS011;3533;51.246;6.850;2022-10-04T09:35:10;5.50;;;2.93;;
6985;SDS011;3533;51.246;6.850;2022-10-04T09:40:56;3.63;;;2.43;;
6985;SDS011;3533;51.246;6.850;2022-10-04T09:57:44;5.73;;;2.53;;
6985;SDS011;3533;51.246;6.850;2022-10-04T10:05:46;4.73;;;2.73;;
6985;SDS011;3533;51.246;6.850;2022-10-04T10:11:36;6.20;;;2.70;;
6985;SDS011;3533;51.246;6.850;2022-10-04T10:14:52;2.57;;;2.47;;
6985;SDS011;3533;51.246;6.850;2022-10-04T10:17:49;3.13;;;2.80;;
6985;SDS011;3533;51.246;6.850;2022-10-04T10:25:39;2.57;;;2.37;;
6985;SDS011;3533;51.246;6.850;2022-10-04T10:28:28;2.70;;;2.50;;
6985;SDS011;3533;51.246;6.850;2022-10-04T10:31:10;2.70;;;2.60;;
6985;SDS011;3533;51.246;6.850;2022-10-04T10:34:12;2.77;;;2.47;;
6985;SDS011;3533;51.246;6.850;2022-10-04T10:37:05;3.03;;;2.83;;
6985;SDS011;3533;51.246;6.850;2022-10-04T10:39:45;2.90;;;2.60;;
6985;SDS011;3533;51.246;6.850;2022-10-04T10:45:16;2.80;;;2.60;;
6985;SDS011;3533;51.246;6.850;2022-10-04T10:50:26;3.90;;;2.90;;
6985;SDS011;3533;51.246;6.850;2022-10-04T11:01:54;2.73;;;2.53;;
6985;SDS011;3533;51.246;6.850;2022-10-04T11:05:08;3.33;;;3.03;;
6985;SDS011;3533;51.246;6.850;2022-10-04T11:25:16;10.93;;;3.43;;
6985;SDS011;3533;51.246;6.850;2022-10-04T11:28:13;13.87;;;3.13;;
6985;SDS011;3533;51.246;6.850;2022-10-04T11:30:57;7.80;;;3.30;;
6985;SDS011;3533;51.246;6.850;2022-10-04T11:33:37;4.50;;;2.73;;
6985;SDS011;3533;51.246;6.850;2022-10-04T11:36:35;4.00;;;3.10;;
6985;SDS011;3533;51.246;6.850;2022-10-04T11:41:50;7.73;;;4.60;;
6985;SDS011;3533;51.246;6.850;2022-10-04T11:44:54;3.33;;;3.13;;
6985;SDS011;3533;51.246;6.850;2022-10-04T11:53:07;3.20;;;2.90;;
6985;SDS011;3533;51.246;6.850;2022-10-04T12:07:19;3.07;;;2.70;;
6985;SDS011;3533;51.246;6.850;2022-10-04T12:09:39;3.70;;;2.70;;
6985;SDS011;3533;51.246;6.850;2022-10-04T12:12:23;5.07;;;2.80;;
6985;SDS011;3533;51.246;6.850;2022-10-04T12:15:16;3.50;;;3.20;;
6985;SDS011;3533;51.246;6.850;2022-10-04T12:21:03;2.90;;;2.70;;
6985;SDS011;3533;51.246;6.850;2022-10-04T12:32:09;2.80;;;2.60;;
6985;SDS011;3533;51.246;6.850;2022-10-04T12:37:44;6.50;;;2.53;;
6985;SDS011;3533;51.246;6.850;2022-10-04T12:40:47;2.80;;;2.57;;
6985;SDS011;3533;51.246;6.850;2022-10-04T12:52:07;3.40;;;2.80;;
6985;SDS011;3533;51.246;6.850;2022-10-04T12:54:41;2.97;;;2.63;;
6985;SDS011;3533;51.246;6.850;2022-10-04T12:57:43;2.53;;;2.33;;
6985;SDS011;3533;51.246;6.850;2022-10-04T13:00:25;2.70;;;2.47;;
6985;SDS011;3533;51.246;6.850;2022-10-04T13:14:04;2.83;;;2.40;;
6985;SDS011;3533;51.246;6.850;2022-10-04T13:17:12;4.27;;;3.10;;
6985;SDS011;3533;51.246;6.850;2022-10-04T13:19:45;2.50;;;2.30;;
6985;SDS011;3533;51.246;6.850;2022-10-04T13:25:36;2.77;;;2.57;;
6985;SDS011;3533;51.246;6.850;2022-10-04T13:28:24;3.00;;;2.80;;
6985;SDS011;3533;51.246;6.850;2022-10-04T13:31:04;3.37;;;2.80;;
6985;SDS011;3533;51.246;6.850;2022-10-04T13:36:21;2.90;;;2.70;;
6985;SDS011;3533;51.246;6.850;2022-10-04T13:39:09;2.83;;;2.60;;
6985;SDS011;3533;51.246;6.850;2022-10-04T13:41:56;3.17;;;2.97;;
6985;SDS011;3533;51.246;6.850;2022-10-04T13:47:23;3.20;;;3.00;;
6985;SDS011;3533;51.246;6.850;2022-10-04T13:52:58;3.07;;;2.87;;
6985;SDS011;3533;51.246;6.850;2022-10-04T13:59:06;2.40;;;2.30;;
6985;SDS011;3533;51.246;6.850;2022-10-04T14:05:12;2.57;;;2.47;;
6985;SDS011;3533;51.246;6.850;2022-10-04T14:14:30;3.87;;;3.57;;
6985;SDS011;3533;51.246;6.850;2022-10-04T14:23:05;3.00;;;2.80;;
6985;SDS011;3533;51.246;6.850;2022-10-04T14:26:03;3.63;;;2.43;;
6985;SDS011;3533;51.246;6.850;2022-10-04T14:28:48;2.63;;;2.43;;
6985;SDS011;3533;51.246;6.850;2022-10-04T14:45:51;3.03;;;2.83;;
6985;SDS011;3533;51.246;6.850;2022-10-04T14:48:50;2.50;;;2.30;;
6985;SDS011;3533;51.246;6.850;2022-10-04T14:54:17;2.40;;;2.20;;
6985;SDS011;3533;51.246;6.850;2022-10-04T15:10:53;2.90;;;2.70;;
6985;SDS011;3533;51.246;6.850;2022-10-04T15:19:23;2.33;;;2.13;;
6985;SDS011;3533;51.246;6.850;2022-10-04T15:22:08;2.70;;;2.50;;
6985;SDS011;3533;51.246;6.850;2022-10-04T15:24:49;3.20;;;2.70;;
6985;SDS011;3533;51.246;6.850;2022-10-04T15:32:34;3.00;;;2.80;;
6985;SDS011;3533;51.246;6.850;2022-10-04T15:35:28;2.50;;;2.30;;
6985;SDS011;3533;51.246;6.850;2022-10-04T15:38:05;2.70;;;2.50;;
6985;SDS011;3533;51.246;6.850;2022-10-04T15:41:00;2.73;;;2.30;;
6985;SDS011;3533;51.246;6.850;2022-10-04T15:46:45;2.17;;;2.07;;
6985;SDS011;3533;51.246;6.850;2022-10-04T15:55:09;2.13;;;1.97;;
6985;SDS011;3533;51.246;6.850;2022-10-04T16:00:27;2.37;;;2.17;;
6985;SDS011;3533;51.246;6.850;2022-10-04T16:11:36;2.37;;;2.23;;
6985;SDS011;3533;51.246;6.850;2022-10-04T16:14:28;4.23;;;2.27;;
6985;SDS011;3533;51.246;6.850;2022-10-04T16:23:27;3.00;;;1.90;;
6985;SDS011;3533;51.246;6.850;2022-10-04T16:25:57;2.70;;;2.33;;
6985;SDS011;3533;51.246;6.850;2022-10-04T16:28:36;2.47;;;1.90;;
6985;SDS011;3533;51.246;6.850;2022-10-04T16:31:23;2.47;;;2.27;;
6985;SDS011;3533;51.246;6.850;2022-10-04T16:42:50;3.10;;;1.87;;
6985;SDS011;3533;51.246;6.850;2022-10-04T16:45:28;4.97;;;2.50;;
6985;SDS011;3533;51.246;6.850;2022-10-04T16:51:06;5.33;;;2.20;;
6985;SDS011;3533;51.246;6.850;2022-10-04T17:09:36;2.30;;;2.10;;
6985;SDS011;3533;51.246;6.850;2022-10-04T17:18:18;1.80;;;1.70;;
6985;SDS011;3533;51.246;6.850;2022-10-04T17:21:12;1.90;;;1.80;;
6985;SDS011;3533;51.246;6.850;2022-10-04T17:24:02;4.20;;;2.17;;
6985;SDS011;3533;51.246;6.850;2022-10-04T17:26:57;2.30;;;2.10;;
6985;SDS011;3533;51.246;6.850;2022-10-04T17:32:35;2.47;;;2.27;;
6985;SDS011;3533;51.246;6.850;2022-10-04T17:38:23;2.67;;;2.47;;
6985;SDS011;3533;51.246;6.850;2022-10-04T17:43:41;4.10;;;2.30;;
6985;SDS011;3533;51.246;6.850;2022-10-04T17:46:21;2.23;;;2.03;;
6985;SDS011;3533;51.246;6.850;2022-10-04T17:48:57;2.20;;;2.10;;
6985;SDS011;3533;51.246;6.850;2022-10-04T17:51:47;2.10;;;1.90;;
6985;SDS011;3533;51.246;6.850;2022-10-04T17:54:43;2.40;;;2.20;;
6985;SDS011;3533;51.246;6.850;2022-10-04T17:57:40;2.30;;;2.10;;
6985;SDS011;3533;51.246;6.850;2022-10-04T18:00:15;2.67;;;2.47;;
6985;SDS011;3533;51.246;6.850;2022-10-04T18:05:26;2.50;;;2.30;;
6985;SDS011;3533;51.246;6.850;2022-10-04T18:07:59;2.43;;;2.23;;
6985;SDS011;3533;51.246;6.850;2022-10-04T18:10:37;2.43;;;2.23;;
6985;SDS011;3533;51.246;6.850;2022-10-04T18:16:07;6.40;;;2.80;;
6985;SDS011;3533;51.246;6.850;2022-10-04T18:19:00;2.47;;;2.27;;
6985;SDS011;3533;51.246;6.850;2022-10-04T18:21:47;2.50;;;2.30;;
6985;SDS011;3533;51.246;6.850;2022-10-04T18:26:59;2.73;;;2.40;;
6985;SDS011;3533;51.246;6.850;2022-10-04T18:29:39;3.03;;;2.83;;
6985;SDS011;3533;51.246;6.850;2022-10-04T18:34:54;2.27;;;2.17;;
6985;SDS011;3533;51.246;6.850;2022-10-04T18:39:50;2.70;;;2.50;;
6985;SDS011;3533;51.246;6.850;2022-10-04T18:42:34;3.93;;;2.80;;
6985;SDS011;3533;51.246;6.850;2022-10-04T18:45:19;2.80;;;2.60;;
6985;SDS011;3533;51.246;6.850;2022-10-04T18:47:46;2.37;;;2.27;;
6985;SDS011;3533;51.246;6.850;2022-10-04T18:50:16;2.53;;;2.33;;
6985;SDS011;3533;51.246;6.850;2022-10-04T19:01:50;4.13;;;2.30;;
6985;SDS011;3533;51.246;6.850;2022-10-04T19:07:29;3.53;;;2.30;;
6985;SDS011;3533;51.246;6.850;2022-10-04T19:10:17;2.73;;;2.53;;
6985;SDS011;3533;51.246;6.850;2022-10-04T19:12:51;2.57;;;2.37;;
6985;SDS011;3533;51.246;6.850;2022-10-04T19:15:25;3.00;;;2.73;;
6985;SDS011;3533;51.246;6.850;2022-10-04T19:18:32;2.77;;;2.57;;
6985;SDS011;3533;51.246;6.850;2022-10-04T19:21:17;2.67;;;2.40;;
6985;SDS011;3533;51.246;6.850;2022-10-04T19:26:51;2.60;;;2.40;;
6985;SDS011;3533;51.246;6.850;2022-10-04T19:35:19;2.70;;;2.50;;
6985;SDS011;3533;51.246;6.850;2022-10-04T19:40:32;2.40;;;2.30;;
6985;SDS011;3533;51.246;6.850;2022-10-04T19:43:14;3.40;;;3.20;;
6985;SDS011;3533;51.246;6.850;2022-10-04T19:46:08;3.03;;;2.73;;
6985;SDS011;3533;51.246;6.850;2022-10-04T19:48:47;2.50;;;2.40;;
6985;SDS011;3533;51.246;6.850;2022-10-04T19:51:30;2.80;;;2.60;;
6985;SDS011;3533;51.246;6.850;2022-10-04T19:54:01;2.30;;;2.20;;
6985;SDS011;3533;51.246;6.850;2022-10-04T19:56:40;2.63;;;2.30;;
6985;SDS011;3533;51.246;6.850;2022-10-04T19:59:17;2.80;;;2.60;;
6985;SDS011;3533;51.246;6.850;2022-10-04T20:01:54;3.53;;;2.40;;
6985;SDS011;3533;51.246;6.850;2022-10-04T20:04:19;2.80;;;2.60;;
6985;SDS011;3533;51.246;6.850;2022-10-04T20:07:03;2.23;;;2.13;;
6985;SDS011;3533;51.246;6.850;2022-10-04T20:17:41;2.60;;;2.40;;
6985;SDS011;3533;51.246;6.850;2022-10-04T20:20:08;2.93;;;2.80;;
6985;SDS011;3533;51.246;6.850;2022-10-04T20:36:04;2.37;;;2.27;;
6985;SDS011;3533;51.246;6.850;2022-10-04T20:46:22;2.80;;;2.60;;
6985;SDS011;3533;51.246;6.850;2022-10-04T20:48:49;2.90;;;2.60;;
6985;SDS011;3533;51.246;6.850;2022-10-04T20:51:18;2.97;;;2.70;;
6985;SDS011;3533;51.246;6.850;2022-10-04T20:53:47;2.63;;;2.43;;
6985;SDS011;3533;51.246;6.850;2022-10-04T21:01:27;2.30;;;2.20;;
6985;SDS011;3533;51.246;6.850;2022-10-04T21:09:29;2.93;;;2.73;;
6985;SDS011;3533;51.246;6.850;2022-10-04T21:11:56;2.20;;;2.10;;
6985;SDS011;3533;51.246;6.850;2022-10-04T21:14:43;2.80;;;2.60;;
6985;SDS011;3533;51.246;6.850;2022-10-04T21:17:33;2.50;;;2.40;;
6985;SDS011;3533;51.246;6.850;2022-10-04T21:20:00;2.43;;;2.33;;
6985;SDS011;3533;51.246;6.850;2022-10-04T21:27:38;2.40;;;2.30;;
6985;SDS011;3533;51.246;6.850;2022-10-04T21:30:14;3.10;;;2.90;;
6985;SDS011;3533;51.246;6.850;2022-10-04T21:32:41;2.47;;;2.27;;
6985;SDS011;3533;51.246;6.850;2022-10-04T21:35:07;2.43;;;2.33;;
6985;SDS011;3533;51.246;6.850;2022-10-04T21:37:33;3.00;;;2.70;;
6985;SDS011;3533;51.246;6.850;2022-10-04T21:39:59;2.50;;;2.30;;
6985;SDS011;3533;51.246;6.850;2022-10-04T21:42:25;2.27;;;2.17;;
6985;SDS011;3533;51.246;6.850;2022-10-04T21:44:51;2.63;;;2.53;;
6985;SDS011;3533;51.246;6.850;2022-10-04T21:47:16;2.70;;;2.50;;
6985;SDS011;3533;51.246;6.850;2022-10-04T21:49:44;2.93;;;2.73;;
6985;SDS011;3533;51.246;6.850;2022-10-04T21:52:10;2.67;;;2.57;;
6985;SDS011;3533;51.246;6.850;2022-10-04T21:54:38;2.20;;;2.10;;
6985;SDS011;3533;51.246;6.850;2022-10-04T21:57:04;2.20;;;2.10;;
6985;SDS011;3533;51.246;6.850;2022-10-04T21:59:29;2.80;;;2.50;;
6985;SDS011;3533;51.246;6.850;2022-10-04T22:01:55;2.60;;;2.50;;
6985;SDS011;3533;51.246;6.850;2022-10-04T22:04:20;2.70;;;2.50;;
6985;SDS011;3533;51.246;6.850;2022-10-04T22:06:46;2.50;;;2.30;;
6985;SDS011;3533;51.246;6.850;2022-10-04T22:09:12;2.40;;;2.20;;
6985;SDS011;3533;51.246;6.850;2022-10-04T22:11:37;2.63;;;2.50;;
6985;SDS011;3533;51.246;6.850;2022-10-04T22:14:03;2.30;;;2.20;;
6985;SDS011;3533;51.246;6.850;2022-10-04T22:16:29;2.33;;;2.23;;
6985;SDS011;3533;51.246;6.850;2022-10-04T22:18:54;2.60;;;2.40;;
6985;SDS011;3533;51.246;6.850;2022-10-04T22:21:20;2.50;;;2.40;;
6985;SDS011;3533;51.246;6.850;2022-10-04T22:23:45;2.87;;;2.67;;
6985;SDS011;3533;51.246;6.850;2022-10-04T22:26:12;2.33;;;2.07;;
6985;SDS011;3533;51.246;6.850;2022-10-04T22:28:48;2.60;;;2.50;;
6985;SDS011;3533;51.246;6.850;2022-10-04T22:31:16;2.23;;;2.13;;
6985;SDS011;3533;51.246;6.850;2022-10-04T22:33:44;3.30;;;3.10;;
6985;SDS011;3533;51.246;6.850;2022-10-04T22:36:21;2.97;;;2.77;;
6985;SDS011;3533;51.246;6.850;2022-10-04T22:41:28;2.53;;;2.37;;
6985;SDS011;3533;51.246;6.850;2022-10-04T22:43:57;2.90;;;2.70;;
6985;SDS011;3533;51.246;6.850;2022-10-04T22:46:35;2.70;;;2.50;;
6985;SDS011;3533;51.246;6.850;2022-10-04T22:49:07;2.53;;;2.33;;
6985;SDS011;3533;51.246;6.850;2022-10-04T22:51:35;2.53;;;2.40;;
6985;SDS011;3533;51.246;6.850;2022-10-04T22:54:07;2.90;;;2.67;;
6985;SDS011;3533;51.246;6.850;2022-10-04T22:56:37;2.53;;;2.43;;
6985;SDS011;3533;51.246;6.850;2022-10-04T22:59:04;2.37;;;2.27;;
6985;SDS011;3533;51.246;6.850;2022-10-04T23:01:29;2.67;;;2.47;;
6985;SDS011;3533;51.246;6.850;2022-10-04T23:03:55;2.27;;;2.17;;
6985;SDS011;3533;51.246;6.850;2022-10-04T23:06:22;2.50;;;2.30;;
6985;SDS011;3533;51.246;6.850;2022-10-04T23:08:47;2.60;;;2.50;;
6985;SDS011;3533;51.246;6.850;2022-10-04T23:11:13;2.20;;;2.10;;
6985;SDS011;3533;51.246;6.850;2022-10-04T23:13:38;2.90;;;2.60;;
6985;SDS011;3533;51.246;6.850;2022-10-04T23:16:16;2.50;;;2.30;;
6985;SDS011;3533;51.246;6.850;2022-10-04T23:18:45;2.30;;;2.20;;
6985;SDS011;3533;51.246;6.850;2022-10-04T23:21:23;2.43;;;2.33;;
6985;SDS011;3533;51.246;6.850;2022-10-04T23:23:50;2.40;;;2.30;;
6985;SDS011;3533;51.246;6.850;2022-10-04T23:26:21;2.40;;;2.30;;
6985;SDS011;3533;51.246;6.850;2022-10-04T23:28:48;2.63;;;2.47;;
6985;SDS011;3533;51.246;6.850;2022-10-04T23:31:24;2.40;;;2.30;;
6985;SDS011;3533;51.246;6.850;2022-10-04T23:33:50;2.73;;;2.60;;
6985;SDS011;3533;51.246;6.850;2022-10-04T23:36:17;2.80;;;2.60;;
6985;SDS011;3533;51.246;6.850;2022-10-04T23:38:45;2.80;;;2.60;;
6985;SDS011;3533;51.246;6.850;2022-10-04T23:41:13;2.60;;;2.50;;
6985;SDS011;3533;51.246;6.850;2022-10-04T23:43:41;2.47;;;2.30;;
6985;SDS011;3533;51.246;6.850;2022-10-04T23:46:24;2.60;;;2.40;;
6985;SDS011;3533;51.246;6.850;2022-10-04T23:48:50;2.30;;;2.20;;
6985;SDS011;3533;51.246;6.850;2022-10-04T23:51:17;2.90;;;2.70;;
6985;SDS011;3533;51.246;6.850;2022-10-04T23:53:44;2.57;;;2.47;;
6985;SDS011;3533;51.246;6.850;2022-10-04T23:56:17;2.30;;;2.10;;
6985;SDS011;3533;51.246;6.850;2022-10-04T23:58:49;2.30;;;2.20;;
